Hermann - S — V2EI6 — position and weather

sailwx.info

Track history (hours):
 
Tides and Currents Weather Stations Pressure Air Temp Water Temp Dewpoint Dewpoint Depression Visibility Wind Speed Wind Dir Waves Ship Positions

Hermann - S

Last reported at 2014-Oct-31 07:23 UTC. Time now 2014-Nov-01 03:24 UTC.
Position S 24°09' W 046°20'.

Length 190 m; draft 6.5 m.

Type: Cargo ship. MMSI: 305441000.

Date/timePositionNaut miles runAvg speedWind from/ knotsBaromVisibWave heightAir tempDewpointWater temp
2014-Oct-31 07:23S 24°09' W 046°20'0 0.0
2014-Oct-31 00:17S 24°09' W 046°20'0 0.0
2014-Oct-30 13:11S 24°09' W 046°20'0 0.0
2014-Oct-30 12:11S 24°09' W 046°20'0 0.0
2014-Oct-30 11:11S 24°09' W 046°20'0 0.0
2014-Oct-30 10:32S 24°09' W 046°20'0 0.0
2014-Oct-30 09:23S 24°09' W 046°20'0 0.0
2014-Oct-30 08:23S 24°09' W 046°20'0 0.0
2014-Oct-30 07:33S 24°09' W 046°20'0 0.0
2014-Oct-30 06:28S 24°09' W 046°20'0 0.0
2014-Oct-30 05:25S 24°09' W 046°20'0 0.0
2014-Oct-30 04:25S 24°09' W 046°20'0 0.0
2014-Oct-30 02:10S 24°09' W 046°20'0 0.0
2014-Oct-30 01:28S 24°09' W 046°20'0 0.0
2014-Oct-30 00:25S 24°09' W 046°20'0 0.0
2014-Oct-28 19:07S 24°09' W 046°20'0 0.0
2014-Oct-27 19:10S 24°09' W 046°20'0 0.0
2014-Oct-27 18:34S 24°09' W 046°20'0 0.0
2014-Oct-27 06:22S 24°09' W 046°20'0 0.0
2014-Oct-27 04:22S 24°09' W 046°20'0 0.0
2014-Oct-27 01:25S 24°09' W 046°20'0 0.0
2014-Oct-27 00:07S 24°09' W 046°20'0 0.0
2014-Oct-26 07:25S 24°09' W 046°20'0 0.1
2014-Oct-26 06:25S 24°09' W 046°20'0 0.0
2014-Oct-26 04:10S 24°09' W 046°20'0 0.0
2014-Oct-26 03:19S 24°09' W 046°20'0 0.0
2014-Oct-26 02:19S 24°09' W 046°20'5 0.6
2014-Oct-25 18:33S 24°04' W 046°22'7 7.1
2014-Oct-25 17:32S 23°58' W 046°18'0 0.0
2014-Oct-25 16:32S 23°58' W 046°18'0 0.0
2014-Oct-25 15:32S 23°58' W 046°18'0 0.0
2014-Oct-25 14:32S 23°58' W 046°18'0 0.0
2014-Oct-25 13:32S 23°58' W 046°18'0 0.0
2014-Oct-25 12:32S 23°58' W 046°18'0 0.0
2014-Oct-25 11:26S 23°58' W 046°18'0 0.2
2014-Oct-25 10:33S 23°58' W 046°18'7 6.6
2014-Oct-25 09:32S 24°04' W 046°22'10 9.4
2014-Oct-25 08:32S 24°13' W 046°18'0 0.2
2014-Oct-25 07:29S 24°13' W 046°18'0 0.0
2014-Oct-25 06:33S 24°13' W 046°18'0 0.0
2014-Oct-25 05:34S 24°13' W 046°18'0 0.0
2014-Oct-25 04:32S 24°13' W 046°18'0 0.0
2014-Oct-25 03:33S 24°13' W 046°18'0 0.0
2014-Oct-25 02:33S 24°13' W 046°18'  
Track history (hours):
 
Tides and Currents Weather Stations Pressure Air Temp Water Temp Dewpoint Dewpoint Depression Visibility Wind Speed Wind Dir Waves Ship Positions

Hermann - S

Last reported at 2014-Oct-31 07:23 UTC. Time now 2014-Nov-01 03:24 UTC.
Position S 24°09' W 046°20'.

Length 190 m; draft 6.5 m.

Type: Cargo ship. MMSI: 305441000.

Date/timePositionNaut miles runAvg speedWind from/ knotsBaromVisibWave heightAir tempDewpointWater temp
2014-Oct-31 07:23S 24°09' W 046°20'0 0.0
2014-Oct-31 00:17S 24°09' W 046°20'0 0.0
2014-Oct-30 13:11S 24°09' W 046°20'0 0.0
2014-Oct-30 12:11S 24°09' W 046°20'0 0.0
2014-Oct-30 11:11S 24°09' W 046°20'0 0.0
2014-Oct-30 10:32S 24°09' W 046°20'0 0.0
2014-Oct-30 09:23S 24°09' W 046°20'0 0.0
2014-Oct-30 08:23S 24°09' W 046°20'0 0.0
2014-Oct-30 07:33S 24°09' W 046°20'0 0.0
2014-Oct-30 06:28S 24°09' W 046°20'0 0.0
2014-Oct-30 05:25S 24°09' W 046°20'0 0.0
2014-Oct-30 04:25S 24°09' W 046°20'0 0.0
2014-Oct-30 02:10S 24°09' W 046°20'0 0.0
2014-Oct-30 01:28S 24°09' W 046°20'0 0.0
2014-Oct-30 00:25S 24°09' W 046°20'0 0.0
2014-Oct-28 19:07S 24°09' W 046°20'0 0.0
2014-Oct-27 19:10S 24°09' W 046°20'0 0.0
2014-Oct-27 18:34S 24°09' W 046°20'0 0.0
2014-Oct-27 06:22S 24°09' W 046°20'0 0.0
2014-Oct-27 04:22S 24°09' W 046°20'0 0.0
2014-Oct-27 01:25S 24°09' W 046°20'0 0.0
2014-Oct-27 00:07S 24°09' W 046°20'0 0.0
2014-Oct-26 07:25S 24°09' W 046°20'0 0.1
2014-Oct-26 06:25S 24°09' W 046°20'0 0.0
2014-Oct-26 04:10S 24°09' W 046°20'0 0.0
2014-Oct-26 03:19S 24°09' W 046°20'0 0.0
2014-Oct-26 02:19S 24°09' W 046°20'5 0.6
2014-Oct-25 18:33S 24°04' W 046°22'7 7.1
2014-Oct-25 17:32S 23°58' W 046°18'0 0.0
2014-Oct-25 16:32S 23°58' W 046°18'0 0.0
2014-Oct-25 15:32S 23°58' W 046°18'0 0.0
2014-Oct-25 14:32S 23°58' W 046°18'0 0.0
2014-Oct-25 13:32S 23°58' W 046°18'0 0.0
2014-Oct-25 12:32S 23°58' W 046°18'0 0.0
2014-Oct-25 11:26S 23°58' W 046°18'0 0.2
2014-Oct-25 10:33S 23°58' W 046°18'7 6.6
2014-Oct-25 09:32S 24°04' W 046°22'10 9.4
2014-Oct-25 08:32S 24°13' W 046°18'0 0.2
2014-Oct-25 07:29S 24°13' W 046°18'0 0.0
2014-Oct-25 06:33S 24°13' W 046°18'0 0.0
2014-Oct-25 05:34S 24°13' W 046°18'0 0.0
2014-Oct-25 04:32S 24°13' W 046°18'0 0.0
2014-Oct-25 03:33S 24°13' W 046°18'0 0.0
2014-Oct-25 02:33S 24°13' W 046°18'  

Dump ship's entire track history